Minneapolis, Minnesota
Traffic Map
Current Weather Conditions
Minneapolis, Minnesota
Overcast
Overcast
14°
Feels Like: 5°
Wind Chill: Ceiling: 4600
Heat Index: 14° Visibility: 8mi
Dew Point: Wind: 6mph
Humidity: 74% Direction: 260° (W)
Pressure: 30.23in Gusts: 0mph
Raw Report DataKMSP 120453Z 26005KT 8SM OVC046 M10/M14 A3023 RMK AO2 SNE44 SLP255 P0000 T11001139
Traffic Incident Summary
Active as of:
Severity:
Category:
InformationThere was an issue retrieving the traffic information for this location. Please try a different location or try again shortly.
Advertisements
Track Severe Weather on mobile